Аэропорт: Элиста. Элиста

ICAO: URWI

METAR:
2018/09/19 07:30
URWI 190730Z 29009G14MPS CAVOK 23/05 Q1019 R27/010065 TEMPO 29009G15MPS
METAR:
2018/07/15 12:12
TAF TAF URWI 151100Z 1512/1524 29003G08MPS 9999 SCT030CB 
      TEMPO 1512/1524 VRB08G15MPS 3100 -TSRAGR SCT011 BKN020CB